createdAt,value
2023-03-01T00:01:22.330Z,100435.59
2023-03-01T00:03:49.478Z,100434.94
2023-03-01T00:06:16.366Z,100436.38
2023-03-01T00:08:43.048Z,100441.19
2023-03-01T00:11:14.437Z,100439.56
2023-03-01T00:13:42.196Z,100440.09
2023-03-01T00:16:13.002Z,100432.88
2023-03-01T00:18:40.061Z,100435.28
2023-03-01T00:21:07.811Z,100432.53
2023-03-01T00:23:37.899Z,100431.00
2023-03-01T00:26:08.913Z,100429.69
2023-03-01T00:28:36.193Z,100426.84
2023-03-01T00:31:07.832Z,100427.38
2023-03-01T00:33:34.620Z,100427.47
2023-03-01T00:36:01.904Z,100427.16
2023-03-01T00:38:28.565Z,100426.06
2023-03-01T00:40:55.261Z,100419.88
2023-03-01T00:43:22.620Z,100414.19
2023-03-01T00:45:49.174Z,100421.88
2023-03-01T00:48:15.760Z,100420.97
2023-03-01T00:50:42.340Z,100409.91
2023-03-01T00:53:09.123Z,100416.34
2023-03-01T00:55:37.778Z,100415.94
2023-03-01T00:58:04.365Z,100410.09
2023-03-01T01:00:30.915Z,100412.06
2023-03-01T01:02:57.682Z,100411.06
2023-03-01T01:05:24.308Z,100412.56
2023-03-01T01:07:50.900Z,100413.56
2023-03-01T01:10:21.958Z,100416.72
2023-03-01T01:12:48.528Z,100412.78
2023-03-01T01:15:17.553Z,100412.88
2023-03-01T01:17:44.604Z,100407.50
2023-03-01T01:20:12.301Z,100402.69
2023-03-01T01:22:39.295Z,100403.69
2023-03-01T01:25:06.354Z,100394.78
2023-03-01T01:27:32.880Z,100395.56
2023-03-01T01:29:59.431Z,100390.91
2023-03-01T01:32:27.161Z,100394.00
2023-03-01T01:34:53.883Z,100396.06
2023-03-01T01:37:20.504Z,100387.22
2023-03-01T01:39:47.049Z,100382.69
2023-03-01T01:42:17.417Z,100380.94
2023-03-01T01:44:47.269Z,100381.25
2023-03-01T01:47:23.154Z,100371.22
2023-03-01T01:49:56.421Z,100374.97
2023-03-01T01:52:37.014Z,100370.13
2023-03-01T01:55:08.649Z,100371.72
2023-03-01T01:57:57.234Z,100363.25
2023-03-01T02:00:29.770Z,100353.91
2023-03-01T02:03:01.462Z,100362.91
2023-03-01T02:05:55.261Z,100360.41
2023-03-01T02:08:26.286Z,100352.50
2023-03-01T02:10:53.929Z,100359.03
2023-03-01T02:13:20.516Z,100350.75
2023-03-01T02:15:47.380Z,100352.59
2023-03-01T02:18:19.380Z,100356.78
2023-03-01T02:20:51.909Z,100349.63
2023-03-01T02:23:18.967Z,100349.91
2023-03-01T02:25:58.424Z,100345.09
2023-03-01T02:28:36.902Z,100345.50
2023-03-01T02:31:24.298Z,100352.69
2023-03-01T02:33:52.181Z,100338.03
2023-03-01T02:36:21.898Z,100331.84
2023-03-01T02:38:50.909Z,100331.53
2023-03-01T02:41:20.488Z,100328.59
2023-03-01T02:43:47.620Z,100327.91
2023-03-01T02:46:17.991Z,100323.13
2023-03-01T02:48:50.902Z,100317.75
2023-03-01T02:51:32.265Z,100314.94
2023-03-01T02:54:21.594Z,100318.91
2023-03-01T02:56:51.239Z,100315.66
2023-03-01T02:59:20.727Z,100321.97
2023-03-01T03:01:47.503Z,100312.31
2023-03-01T03:04:21.936Z,100310.34
2023-03-01T03:06:50.484Z,100311.56
2023-03-01T03:09:18.950Z,100313.31
2023-03-01T03:11:46.182Z,100314.81
2023-03-01T03:14:15.544Z,100310.78
2023-03-01T03:16:47.775Z,100305.63
2023-03-01T03:19:15.553Z,100311.56
2023-03-01T03:21:42.077Z,100311.41
2023-03-01T03:24:08.647Z,100312.41
2023-03-01T03:26:35.352Z,100305.03
2023-03-01T03:29:02.150Z,100300.88
2023-03-01T03:31:28.885Z,100304.94
2023-03-01T03:33:55.516Z,100309.84
2023-03-01T03:36:24.886Z,100305.03
2023-03-01T03:38:51.475Z,100296.25
2023-03-01T03:41:18.397Z,100292.69
2023-03-01T03:43:45.011Z,100292.06
2023-03-01T03:46:12.599Z,100299.63
2023-03-01T03:48:42.011Z,100298.53
2023-03-01T03:51:11.961Z,100300.91
2023-03-01T03:53:38.612Z,100301.78
2023-03-01T03:56:06.642Z,100297.50
2023-03-01T03:58:33.776Z,100296.16
2023-03-01T04:01:01.808Z,100293.63
2023-03-01T04:03:30.810Z,100297.66
2023-03-01T04:06:01.468Z,100286.84
2023-03-01T04:08:29.187Z,100293.63
2023-03-01T04:11:21.719Z,100286.47
2023-03-01T04:13:49.045Z,100282.47
2023-03-01T04:16:15.889Z,100290.00
2023-03-01T04:18:42.418Z,100286.56
2023-03-01T04:21:08.994Z,100287.41
2023-03-01T04:23:36.235Z,100288.72
2023-03-01T04:26:03.026Z,100281.59
2023-03-01T04:28:35.936Z,100283.84
2023-03-01T04:31:18.998Z,100280.09
2023-03-01T04:33:48.753Z,100276.59
2023-03-01T04:36:17.345Z,100276.34
2023-03-01T04:38:48.681Z,100276.34
2023-03-01T04:41:17.524Z,100266.53
2023-03-01T04:43:44.097Z,100274.31
2023-03-01T04:46:15.588Z,100274.72
2023-03-01T04:48:44.234Z,100271.56
2023-03-01T04:51:14.331Z,100267.03
2023-03-01T04:53:42.269Z,100265.03
2023-03-01T04:56:09.381Z,100267.31
2023-03-01T04:58:35.985Z,100271.59
2023-03-01T05:01:02.620Z,100272.97
2023-03-01T05:03:29.914Z,100283.66
2023-03-01T05:06:00.721Z,100285.28
2023-03-01T05:08:27.942Z,100282.19
2023-03-01T05:10:55.440Z,100285.22
2023-03-01T05:13:23.029Z,100284.50
2023-03-01T05:16:00.837Z,100286.47
2023-03-01T05:18:29.237Z,100272.75
2023-03-01T05:21:02.429Z,100281.97
2023-03-01T05:23:28.979Z,100278.34
2023-03-01T05:25:59.198Z,100281.34
2023-03-01T05:28:26.628Z,100270.41
2023-03-01T05:30:53.683Z,100275.31
2023-03-01T05:33:20.315Z,100270.34
2023-03-01T05:35:47.079Z,100263.56
2023-03-01T05:38:14.323Z,100262.34
2023-03-01T05:40:45.298Z,100258.81
2023-03-01T05:43:12.992Z,100266.81
2023-03-01T05:45:40.545Z,100270.41
2023-03-01T05:48:08.240Z,100273.06
2023-03-01T05:50:38.120Z,100261.91
2023-03-01T05:53:08.720Z,100261.66
2023-03-01T05:55:36.421Z,100265.94
2023-03-01T05:58:05.947Z,100266.31
2023-03-01T06:00:32.765Z,100273.41
2023-03-01T06:03:00.494Z,100268.44
2023-03-01T06:05:28.209Z,100278.56
2023-03-01T06:08:00.412Z,100269.66
2023-03-01T06:10:27.015Z,100278.50
2023-03-01T06:12:54.765Z,100266.47
2023-03-01T06:15:22.129Z,100273.88
2023-03-01T06:17:49.106Z,100267.97
2023-03-01T06:20:19.029Z,100267.84
2023-03-01T06:22:46.442Z,100270.09
2023-03-01T06:25:15.715Z,100269.09
2023-03-01T06:27:43.108Z,100272.38
2023-03-01T06:30:11.976Z,100270.63
2023-03-01T06:32:42.916Z,100271.59
2023-03-01T06:35:11.924Z,100270.47
2023-03-01T06:37:38.652Z,100269.50
2023-03-01T06:40:10.020Z,100266.22
2023-03-01T06:42:37.004Z,100262.94
2023-03-01T06:45:05.820Z,100265.44
2023-03-01T06:47:34.199Z,100268.63
2023-03-01T06:50:01.971Z,100264.38
2023-03-01T06:52:28.529Z,100271.63
2023-03-01T06:54:55.101Z,100267.50
2023-03-01T06:57:21.658Z,100265.75
2023-03-01T06:59:49.059Z,100272.44
2023-03-01T07:02:16.689Z,100274.47
2023-03-01T07:04:43.795Z,100273.03
2023-03-01T07:07:10.766Z,100274.50
2023-03-01T07:09:37.431Z,100267.06
2023-03-01T07:12:04.583Z,100267.81
2023-03-01T07:14:31.448Z,100271.06
2023-03-01T07:16:58.869Z,100279.56
2023-03-01T07:19:25.627Z,100282.84
2023-03-01T07:21:52.257Z,100270.31
2023-03-01T07:24:18.822Z,100270.31
2023-03-01T07:26:45.342Z,100270.63
2023-03-01T07:29:12.313Z,100272.84
2023-03-01T07:31:38.918Z,100276.47
2023-03-01T07:34:05.461Z,100276.59
2023-03-01T07:36:32.382Z,100284.53
2023-03-01T07:38:59.722Z,100280.75
2023-03-01T07:41:26.272Z,100276.81
2023-03-01T07:43:52.872Z,100284.94
2023-03-01T07:46:20.346Z,100279.75
2023-03-01T07:48:47.364Z,100292.44
2023-03-01T07:51:14.585Z,100291.94
2023-03-01T07:53:41.258Z,100288.13
2023-03-01T07:56:13.444Z,100291.00
2023-03-01T07:58:42.781Z,100296.44
2023-03-01T08:01:12.548Z,100293.91
2023-03-01T08:03:39.648Z,100292.28
2023-03-01T08:06:08.794Z,100297.66
2023-03-01T08:08:36.721Z,100296.88
2023-03-01T08:11:06.101Z,100290.31
2023-03-01T08:13:33.196Z,100293.06
2023-03-01T08:16:05.237Z,100291.22
2023-03-01T08:18:32.203Z,100285.28
2023-03-01T08:21:17.025Z,100284.59
2023-03-01T08:23:43.987Z,100285.28
2023-03-01T08:26:19.613Z,100284.09
2023-03-01T08:28:47.686Z,100283.59
2023-03-01T08:31:27.209Z,100273.91
2023-03-01T08:33:59.141Z,100276.13
2023-03-01T08:36:28.476Z,100275.09
2023-03-01T08:38:55.842Z,100277.53
2023-03-01T08:41:22.719Z,100283.63
2023-03-01T08:43:49.380Z,100283.28
2023-03-01T08:46:16.158Z,100273.75
2023-03-01T08:48:44.200Z,100276.28
2023-03-01T08:51:15.746Z,100274.75
2023-03-01T08:53:42.353Z,100263.53
2023-03-01T08:56:10.046Z,100259.50
2023-03-01T08:58:37.238Z,100265.13
2023-03-01T09:01:11.475Z,100268.13
2023-03-01T09:03:38.648Z,100272.94
2023-03-01T09:06:08.527Z,100265.72
2023-03-01T09:08:36.872Z,100262.47
2023-03-01T09:11:05.049Z,100264.47
2023-03-01T09:13:32.263Z,100275.63
2023-03-01T09:16:04.076Z,100264.00
2023-03-01T09:18:31.160Z,100265.88
2023-03-01T09:21:10.924Z,100258.63
2023-03-01T09:23:40.039Z,100261.06
2023-03-01T09:26:12.339Z,100259.84
2023-03-01T09:28:39.680Z,100268.19
2023-03-01T09:31:06.697Z,100252.25
2023-03-01T09:33:34.412Z,100248.00
2023-03-01T09:36:04.448Z,100240.84
2023-03-01T09:38:31.849Z,100235.47
2023-03-01T09:40:58.537Z,100227.13
2023-03-01T09:43:46.981Z,100215.03
2023-03-01T09:46:17.764Z,100210.19
2023-03-01T09:48:51.533Z,100204.56
2023-03-01T09:51:29.254Z,100204.72
2023-03-01T09:53:57.014Z,100205.44
2023-03-01T09:56:45.579Z,100210.25
2023-03-01T09:59:15.038Z,100204.94
2023-03-01T10:02:05.198Z,100193.56
2023-03-01T10:04:40.914Z,100189.44
2023-03-01T10:07:10.205Z,100183.50
2023-03-01T10:09:40.361Z,100178.75
2023-03-01T10:12:16.537Z,100181.97
2023-03-01T10:14:43.017Z,100183.34
2023-03-01T10:17:37.681Z,100179.38
2023-03-01T10:20:15.796Z,100178.22
2023-03-01T10:22:42.523Z,100181.00
2023-03-01T10:25:15.724Z,100183.25
2023-03-01T10:27:55.623Z,100178.22
2023-03-01T10:30:40.269Z,100163.91
2023-03-01T10:33:18.552Z,100168.88
2023-03-01T10:35:45.236Z,100165.97
2023-03-01T10:38:16.107Z,100161.41
2023-03-01T10:41:06.707Z,100158.56
2023-03-01T10:43:51.850Z,100160.69
2023-03-01T10:46:24.487Z,100162.75
2023-03-01T10:49:22.120Z,100155.44
2023-03-01T10:51:53.539Z,100144.91
2023-03-01T10:54:30.034Z,100144.63
2023-03-01T10:56:58.760Z,100141.25
2023-03-01T10:59:33.927Z,100143.69
2023-03-01T11:02:24.488Z,100128.63
2023-03-01T11:05:14.847Z,100130.88
2023-03-01T11:07:57.589Z,100125.53
2023-03-01T11:10:26.753Z,100122.78
2023-03-01T11:12:55.073Z,100121.50
2023-03-01T11:15:31.369Z,100121.31
2023-03-01T11:18:08.949Z,100117.78
2023-03-01T11:20:40.892Z,100101.34
2023-03-01T11:23:13.260Z,100102.66
2023-03-01T11:26:03.703Z,100107.31
2023-03-01T11:28:31.307Z,100092.50
2023-03-01T11:31:09.838Z,100085.56
2023-03-01T11:33:51.538Z,100085.81
2023-03-01T11:36:33.414Z,100086.22
2023-03-01T11:39:13.716Z,100076.47
2023-03-01T11:41:43.227Z,100071.00
2023-03-01T11:44:17.604Z,100068.72
2023-03-01T11:47:02.437Z,100057.78
2023-03-01T11:49:41.504Z,100046.50
2023-03-01T11:52:40.793Z,100048.13
2023-03-01T11:55:44.785Z,100052.31
2023-03-01T11:58:39.391Z,100033.69
2023-03-01T12:01:31.432Z,100030.88
2023-03-01T12:04:20.538Z,100020.75
2023-03-01T12:06:59.078Z,100013.47
2023-03-01T12:09:39.829Z,100021.00
2023-03-01T12:12:39.955Z,100009.00
2023-03-01T12:15:24.809Z,100011.28
2023-03-01T12:18:09.614Z,100007.69
2023-03-01T12:20:54.980Z,99994.28
2023-03-01T12:23:42.600Z,99992.97
2023-03-01T12:26:20.555Z,99993.72
2023-03-01T12:28:57.940Z,100003.00
2023-03-01T12:31:46.215Z,99997.31
2023-03-01T12:34:31.433Z,99982.06
2023-03-01T12:37:27.294Z,99982.28
2023-03-01T12:40:31.143Z,99979.25
2023-03-01T12:43:09.920Z,99977.22
2023-03-01T12:45:51.458Z,99977.03
2023-03-01T12:48:29.424Z,99967.56
2023-03-01T12:51:00.550Z,99970.34
2023-03-01T12:53:32.628Z,99969.72
2023-03-01T12:56:22.111Z,99965.13
2023-03-01T12:59:12.890Z,99964.53
2023-03-01T13:01:47.505Z,99960.19
2023-03-01T13:04:22.346Z,99947.78
2023-03-01T13:07:36.825Z,99955.53
2023-03-01T13:10:36.030Z,99954.19
2023-03-01T13:13:13.449Z,99957.53
2023-03-01T13:15:40.623Z,99951.91
2023-03-01T13:18:17.134Z,99949.28
2023-03-01T13:20:43.730Z,99939.06
2023-03-01T13:23:26.512Z,99937.78
2023-03-01T13:26:18.742Z,99927.94
2023-03-01T13:28:45.213Z,99939.06
2023-03-01T13:31:32.090Z,99943.19
2023-03-01T13:34:00.269Z,99943.97
2023-03-01T13:36:30.126Z,99926.47
2023-03-01T13:39:01.999Z,99924.84
2023-03-01T13:42:01.181Z,99919.56
2023-03-01T13:44:37.486Z,99925.16
2023-03-01T13:47:19.666Z,99913.97
2023-03-01T13:50:04.350Z,99918.91
2023-03-01T13:52:41.631Z,99902.84
2023-03-01T13:55:30.874Z,99915.78
2023-03-01T13:58:05.748Z,99911.91
2023-03-01T14:00:40.659Z,99900.97
2023-03-01T14:03:12.122Z,99888.38
2023-03-01T14:05:40.200Z,99886.91
2023-03-01T14:08:21.151Z,99889.13
2023-03-01T14:10:55.415Z,99891.53
2023-03-01T14:13:50.386Z,99910.38
2023-03-01T14:16:31.813Z,99902.78
2023-03-01T14:19:08.228Z,99898.88
2023-03-01T14:21:36.421Z,99897.75
2023-03-01T14:24:03.376Z,99891.81
2023-03-01T14:26:38.725Z,99888.63
2023-03-01T14:29:05.285Z,99873.97
2023-03-01T14:31:46.964Z,99884.25
2023-03-01T14:34:25.640Z,99884.94
2023-03-01T14:36:52.616Z,99882.63
2023-03-01T14:39:24.886Z,99882.75
2023-03-01T14:41:52.194Z,99878.38
2023-03-01T14:44:25.594Z,99883.03
2023-03-01T14:46:57.032Z,99893.06
2023-03-01T14:49:28.054Z,99888.63
2023-03-01T14:52:00.704Z,99883.72
2023-03-01T14:54:29.076Z,99872.91
2023-03-01T14:57:00.765Z,99879.19
2023-03-01T14:59:28.104Z,99875.47
2023-03-01T15:01:59.058Z,99886.75
2023-03-01T15:04:28.506Z,99884.63
2023-03-01T15:07:06.195Z,99880.81
2023-03-01T15:09:37.582Z,99882.63
2023-03-01T15:12:43.341Z,99888.47
2023-03-01T15:15:42.443Z,99880.00
2023-03-01T15:18:22.730Z,99876.94
2023-03-01T15:20:51.572Z,99872.66
2023-03-01T15:23:25.319Z,99883.59
2023-03-01T15:26:00.213Z,99882.97
2023-03-01T15:28:31.450Z,99893.59
2023-03-01T15:31:02.476Z,99888.63
2023-03-01T15:33:33.968Z,99881.88
2023-03-01T15:36:02.917Z,99885.53
2023-03-01T15:38:36.096Z,99890.97
2023-03-01T15:41:23.880Z,99891.75
2023-03-01T15:43:51.561Z,99884.44
2023-03-01T15:46:38.784Z,99880.00
2023-03-01T15:49:49.563Z,99883.72
2023-03-01T15:52:29.982Z,99885.53
2023-03-01T15:54:59.214Z,99893.06
2023-03-01T15:57:26.126Z,99888.41
2023-03-01T15:59:52.810Z,99894.00
2023-03-01T16:02:22.057Z,99902.38
2023-03-01T16:04:50.624Z,99897.44
2023-03-01T16:07:17.970Z,99889.34
2023-03-01T16:09:45.087Z,99889.66
2023-03-01T16:12:16.769Z,99893.94
2023-03-01T16:14:43.996Z,99895.19
2023-03-01T16:17:11.323Z,99889.81
2023-03-01T16:19:39.307Z,99898.44
2023-03-01T16:22:07.019Z,99888.72
2023-03-01T16:24:33.865Z,99893.22
2023-03-01T16:27:00.401Z,99895.53
2023-03-01T16:29:28.068Z,99897.94
2023-03-01T16:31:54.770Z,99896.13
2023-03-01T16:34:22.903Z,99904.47
2023-03-01T16:36:50.112Z,99894.56
2023-03-01T16:39:17.585Z,99902.88
2023-03-01T16:41:44.377Z,99897.19
2023-03-01T16:44:10.968Z,99896.81
2023-03-01T16:46:37.569Z,99891.34
2023-03-01T16:49:04.311Z,99896.47
2023-03-01T16:51:32.091Z,99893.88
2023-03-01T16:53:59.541Z,99892.50
2023-03-01T16:56:26.055Z,99891.09
2023-03-01T16:58:52.722Z,99901.56
2023-03-01T17:01:21.397Z,99901.63
2023-03-01T17:03:50.251Z,99904.03
2023-03-01T17:06:21.363Z,99913.25
2023-03-01T17:08:48.045Z,99912.75
2023-03-01T17:11:17.274Z,99910.47
2023-03-01T17:13:44.342Z,99913.41
2023-03-01T17:16:14.098Z,99919.28
2023-03-01T17:18:41.134Z,99920.22
2023-03-01T17:21:08.541Z,99927.25
2023-03-01T17:23:36.806Z,99930.53
2023-03-01T17:26:04.020Z,99937.34
2023-03-01T17:28:32.995Z,99934.44
2023-03-01T17:31:01.608Z,99935.53
2023-03-01T17:33:31.301Z,99931.88
2023-03-01T17:35:58.848Z,99932.38
2023-03-01T17:38:25.991Z,99932.28
2023-03-01T17:40:52.706Z,99944.81
2023-03-01T17:43:20.148Z,99948.00
2023-03-01T17:45:51.548Z,99943.63
2023-03-01T17:48:18.657Z,99939.22
2023-03-01T17:50:45.627Z,99945.94
2023-03-01T17:53:13.363Z,99953.34
2023-03-01T17:55:41.797Z,99955.72
2023-03-01T17:58:10.084Z,99949.44
2023-03-01T18:00:37.080Z,99946.75
2023-03-01T18:03:04.090Z,99957.78
2023-03-01T18:05:35.787Z,99960.31
2023-03-01T18:08:02.451Z,99965.25
2023-03-01T18:10:29.030Z,99965.69
2023-03-01T18:12:55.616Z,99968.09
2023-03-01T18:15:22.161Z,99967.13
2023-03-01T18:17:49.204Z,99973.84
2023-03-01T18:20:16.129Z,99977.03
2023-03-01T18:22:42.839Z,99977.34
2023-03-01T18:25:09.745Z,99972.44
2023-03-01T18:27:37.068Z,99978.34
2023-03-01T18:30:07.480Z,99983.03
2023-03-01T18:32:34.222Z,99980.06
2023-03-01T18:35:00.789Z,99990.31
2023-03-01T18:37:27.444Z,99987.53
2023-03-01T18:39:54.656Z,99994.53
2023-03-01T18:42:21.946Z,99998.47
2023-03-01T18:44:49.165Z,99995.69
2023-03-01T18:47:17.140Z,99989.72
2023-03-01T18:49:44.380Z,100001.53
2023-03-01T18:52:11.272Z,100002.19
2023-03-01T18:54:37.941Z,100012.22
2023-03-01T18:57:06.881Z,100007.06
2023-03-01T18:59:33.820Z,100004.44
2023-03-01T19:02:00.452Z,100006.72
2023-03-01T19:04:27.347Z,100022.47
2023-03-01T19:06:54.036Z,100019.16
2023-03-01T19:09:20.949Z,100021.69
2023-03-01T19:11:47.557Z,100018.13
2023-03-01T19:14:14.150Z,100015.41
2023-03-01T19:16:40.734Z,100010.22
2023-03-01T19:19:09.998Z,100013.47
2023-03-01T19:21:36.909Z,100017.66
2023-03-01T19:24:04.042Z,100005.63
2023-03-01T19:26:31.740Z,100007.88
2023-03-01T19:28:59.049Z,100007.63
2023-03-01T19:31:28.941Z,100010.25
2023-03-01T19:34:09.867Z,100016.03
2023-03-01T19:36:38.000Z,100018.38
2023-03-01T19:39:06.390Z,100006.31
2023-03-01T19:41:33.586Z,100012.97
2023-03-01T19:44:04.599Z,100012.72
2023-03-01T19:46:35.023Z,100026.06
2023-03-01T19:49:03.523Z,100016.66
2023-03-01T19:51:33.537Z,100019.78
2023-03-01T19:54:00.120Z,100019.78
2023-03-01T19:56:26.741Z,100020.41
2023-03-01T19:59:00.281Z,100030.53
2023-03-01T20:01:32.913Z,100027.81
2023-03-01T20:04:02.867Z,100028.50
2023-03-01T20:06:30.444Z,100031.06
2023-03-01T20:08:57.988Z,100029.91
2023-03-01T20:11:25.285Z,100024.66
2023-03-01T20:13:51.887Z,100022.63
2023-03-01T20:16:20.032Z,100027.72
2023-03-01T20:18:46.956Z,100026.75
2023-03-01T20:21:23.608Z,100020.78
2023-03-01T20:23:51.885Z,100017.81
2023-03-01T20:26:21.266Z,100026.09
2023-03-01T20:28:49.373Z,100011.69
2023-03-01T20:31:18.262Z,100020.84
2023-03-01T20:33:44.817Z,100014.22
2023-03-01T20:36:12.477Z,100011.69
2023-03-01T20:38:39.911Z,100007.22
2023-03-01T20:41:08.934Z,100015.69
2023-03-01T20:43:36.574Z,100010.56
2023-03-01T20:46:05.341Z,100009.41
2023-03-01T20:48:31.892Z,100018.47
2023-03-01T20:51:01.721Z,100009.06
2023-03-01T20:53:29.335Z,100012.53
2023-03-01T20:55:56.229Z,100014.28
2023-03-01T20:58:22.735Z,100008.34
2023-03-01T21:00:52.542Z,100015.84
2023-03-01T21:03:19.126Z,100015.59
2023-03-01T21:05:45.717Z,100011.09
2023-03-01T21:08:12.373Z,100013.47
2023-03-01T21:10:39.009Z,100020.25
2023-03-01T21:13:05.773Z,100013.72
2023-03-01T21:15:32.490Z,100015.28
2023-03-01T21:17:59.175Z,100009.28
2023-03-01T21:20:25.782Z,100009.69
2023-03-01T21:22:52.357Z,100014.66
2023-03-01T21:25:19.084Z,100012.91
2023-03-01T21:27:46.197Z,100005.31
2023-03-01T21:30:13.613Z,100014.38
2023-03-01T21:32:40.266Z,100013.50
2023-03-01T21:35:07.181Z,100011.56
2023-03-01T21:37:33.958Z,100007.31
2023-03-01T21:40:00.646Z,100013.56
2023-03-01T21:42:27.304Z,100012.41
2023-03-01T21:44:53.896Z,100016.66
2023-03-01T21:47:20.460Z,100014.13
2023-03-01T21:49:47.346Z,100012.91
2023-03-01T21:52:16.950Z,100008.50
2023-03-01T21:54:44.861Z,100001.53
2023-03-01T21:57:12.511Z,100000.38
2023-03-01T21:59:39.146Z,100001.53
2023-03-01T22:02:05.805Z,100006.00
2023-03-01T22:04:32.588Z,100009.31
2023-03-01T22:06:59.285Z,100009.81
2023-03-01T22:09:25.999Z,100016.81
2023-03-01T22:11:58.443Z,100007.38
2023-03-01T22:14:26.501Z,100011.38
2023-03-01T22:16:53.512Z,100007.00
2023-03-01T22:19:20.884Z,100016.16
2023-03-01T22:21:50.285Z,100008.06
2023-03-01T22:24:19.901Z,100016.94
2023-03-01T22:26:49.243Z,100011.19
2023-03-01T22:29:22.850Z,100020.31
2023-03-01T22:31:51.155Z,100006.03
2023-03-01T22:34:18.464Z,100005.16
2023-03-01T22:36:45.518Z,100007.09
2023-03-01T22:39:14.349Z,100008.66
2023-03-01T22:41:44.299Z,100003.50
2023-03-01T22:44:13.268Z,100002.53
2023-03-01T22:46:40.527Z,99999.91
2023-03-01T22:49:07.419Z,100003.13
2023-03-01T22:51:37.450Z,100004.28
2023-03-01T22:54:05.062Z,99997.94
2023-03-01T22:56:34.420Z,99992.88
2023-03-01T22:59:04.195Z,100004.69
2023-03-01T23:01:31.444Z,100004.78
2023-03-01T23:03:58.160Z,100011.88
2023-03-01T23:06:25.108Z,99996.91
2023-03-01T23:08:57.152Z,99992.25
2023-03-01T23:11:25.576Z,99989.91
2023-03-01T23:13:53.107Z,99992.72
2023-03-01T23:16:20.881Z,99988.94
2023-03-01T23:18:47.417Z,99992.81
2023-03-01T23:21:17.704Z,99994.28
2023-03-01T23:23:47.168Z,99991.75
2023-03-01T23:26:14.804Z,100003.41
2023-03-01T23:28:42.412Z,99993.50
2023-03-01T23:31:12.122Z,99991.66
2023-03-01T23:33:38.888Z,99989.69
2023-03-01T23:36:19.478Z,99990.78
2023-03-01T23:38:48.006Z,99990.69
2023-03-01T23:41:23.335Z,99990.78
2023-03-01T23:43:53.610Z,99995.13
2023-03-01T23:46:22.331Z,99987.06
2023-03-01T23:48:49.162Z,99985.91
2023-03-01T23:51:17.729Z,99985.22
2023-03-01T23:53:54.489Z,99989.59
2023-03-01T23:56:26.875Z,99986.88
2023-03-01T23:58:58.568Z,99982.31
